• Join FlightAware (Why Join?)
  • Login
  • US Flag 
01:04PM EDT


 

Airport Tracker/Info


-or-


 

Live Flight TrackerFlight Track Log ✈ ASQ4577 ✈ 08-Jul-2013 ✈ KCLE - KALB

Flight Track Log - Related Links

Times and Time Zones

All times are in EDT time to prevent confusion due to time zone crossing. See the ASQ4577 flight status page for this flight to view local times or setup timezone preferences in your user account.

Time Position Orientation Groundspeed Altitude Reporting Facility
EDT Latitude Longitude Course Direction KTS MPH feet Rate Location/Type
07:51PM 41.4169 -81.8678 75° East 151 174 1,400  Level Cleveland Center
07:51PM 41.4167 -81.9067 269° West 162 186 3,100 1,860 Climbing Cleveland Center
07:52PM 41.4450 -81.9708 301° West 265 305 4,600 1,740 Climbing Cleveland Center
07:54PM 41.7275 -81.5225 37° Northeast  Level FlightAware Approximate
07:54PM 41.5042 -81.9139 36° Northeast 316 364 6,800  Level Cleveland Center
07:55PM 41.8100 -81.4401 37° Northeast  Level FlightAware Approximate
07:55PM 41.5572 -81.8292 50° Northeast 307 353 9,000  Level Cleveland Center
07:56PM 41.8460 -81.3200 75° East  Level FlightAware Approximate
07:56PM 41.6228 -81.7386 46° Northeast 296 341 10,900  Level Cleveland Center
07:57PM 41.6839 -81.6481 48° Northeast 315 362 12,600 1,800 Climbing Cleveland Center
07:58PM 41.7575 -81.5769 36° Northeast 321 369 14,600 1,860 Climbing Cleveland Center
07:59PM 41.8475 -81.5392 17° North 326 375 16,400 1,500 Climbing Cleveland Center
08:00PM 41.9336 -81.4847 25° Northeast 336 387 17,600 1,020 Climbing Cleveland Center
08:01PM 41.9719 -81.3567 68° East 337 388 18,500 960 Climbing Cleveland Center
08:02PM 41.9875 -81.2172 81° East 355 409 19,600 1,020 Climbing Cleveland Center
08:03PM 42.0047 -81.0722 81° East 383 441 20,600 900 Climbing Cleveland Center
08:04PM 42.0178 -80.9353 83° East 391 450 21,400 780 Climbing Cleveland Center
08:05PM 42.0328 -80.7844 82° East 406 467 22,200 840 Climbing Cleveland Center
08:06PM 42.0497 -80.6336 81° East 413 475 23,100 900 Climbing Cleveland Center
08:07PM 42.0642 -80.4742 83° East 413 475 24,100 1,020 Climbing Cleveland Center
08:08PM 42.0828 -80.3203 81° East 418 481 25,200 1,020 Climbing Cleveland Center
08:09PM 42.1072 -80.1550 79° East 418 481 26,200 1,020 Climbing Cleveland Center
08:10PM 42.1253 -80.0036 81° East 413 475 27,300 1,020 Climbing Cleveland Center
08:11PM 42.1433 -79.8664 80° East 408 470 28,300 1,020 Climbing Cleveland Center
08:12PM 42.1631 -79.7175 80° East 408 470 29,400 1,020 Climbing Cleveland Center
08:13PM 42.1806 -79.5689 81° East 408 470 30,400 780 Climbing Cleveland Center
08:14PM 42.2000 -79.4200 80° East 408 470 31,000 300 Climbing Cleveland Center
08:15PM 42.2211 -79.2542 80° East 422 486 31,000  Level Cleveland Center
08:16PM 42.2400 -79.0911 81° East 433 498 31,000  Level Cleveland Center
08:17PM 42.2586 -78.9194 82° East 444 511 31,000  Level Cleveland Center
08:18PM 42.2808 -78.7394 80° East 449 517 31,000  Level Cleveland Center
08:19PM 42.3031 -78.5731 80° East 449 517 31,000  Level Cleveland Center
08:20PM 42.3208 -78.4011 82° East 449 517 31,000  Level Cleveland Center
08:21PM 42.3403 -78.2319 81° East 449 517 31,000  Level Cleveland Center
08:22PM 42.3597 -78.0569 81° East 454 522 31,000  Level Cleveland Center
08:23PM 42.3786 -77.8847 81° East 460 529 31,000  Level Cleveland Center
08:24PM 42.3958 -77.7294 81° East 465 535 31,000  Level Cleveland Center
08:25PM 42.4125 -77.5656 82° East 465 535 31,000  Level Cleveland Center
08:26PM 42.4308 -77.3958 82° East 457 526 31,000 -60 Level Cleveland Center
08:27PM 42.4489 -77.2289 82° East 451 519 30,900 -660 Descending Cleveland Center
08:29PM 42.4881 -76.8386 82° East 441 507 29,000 -600 Descending Boston Center
08:30PM 42.5047 -76.6792 82° East 441 507 29,000  Level Boston Center
08:31PM 42.5189 -76.5167 83° East 436 502 29,000  Level Boston Center
08:32PM 42.5350 -76.3600 82° East 436 502 29,000  Level Boston Center
08:33PM 42.5483 -76.2114 83° East 436 502 29,000  Level Boston Center
08:34PM 42.5619 -76.0458 84° East 436 502 29,000 -480 Level Boston Center
08:35PM 42.5794 -75.8861 81° East 436 502 28,100 -600 Descending Boston Center
08:36PM 42.5925 -75.7289 84° East 430 495 27,800 -1,380 Descending Boston Center
08:37PM 42.6075 -75.5658 83° East 425 489 25,400 -2,520 Descending Boston Center
08:38PM 42.6203 -75.4000 84° East 425 489 22,800 -2,460 Descending Boston Center
08:39PM 42.6347 -75.2425 83° East 431 496 20,500 -2,220 Descending Boston Center
08:40PM 42.6447 -75.0878 85° East 418 481 18,400 -2,100 Descending Boston Center
08:41PM 42.6336 -74.9378 96° East 404 465 16,300 -2,400 Descending Boston Center
08:42PM 42.6181 -74.7819 98° East 387 445 13,600 -2,640 Descending Boston Center
08:43PM 42.6083 -74.6461 96° East 370 426 11,100 -1,260 Descending Boston Center
08:44PM 42.5981 -74.5217 96° East 347 399 11,100 -60 Level Boston Center
08:45PM 42.5917 -74.4142 95° East 326 375 11,000 -660 Descending Boston Center
08:46PM 42.5831 -74.3039 96° East 294 338 9,900 -1,380 Descending Boston Center
08:47PM 42.5639 -74.1992 104° East 290 334 8,300 -1,620 Descending Boston Center
08:48PM 42.5386 -74.0800 106° East 284 327 6,500 -1,800 Descending Boston Center
08:49PM 42.5211 -73.9978 106° East 261 300 4,700 -1,800 Descending Boston Center
08:50PM 42.5014 -73.9017 106° East 236 272 3,100 -840 Descending Boston Center
08:51PM 42.5272 -73.8347 62° Northeast 212 244 3,100  Level Boston Center
08:52PM 42.5714 -73.8017 29° Northeast 209 241 3,100 -360 Level Boston Center
08:53PM 42.6236 -73.8031 359° North 176 203 2,500 -360 Descending Boston Center
08:54PM 42.6842 -73.7817 15° North 184 212 2,400 -720 Descending Boston Center
08:55PM 42.7069 -73.7992 331° Northwest 146 168 1,100 -480 Descending Boston Center
08:56PM 42.7222 -73.7486 68° East 157 181 1,500 360 Climbing Boston Center